Time;durP1;ratioP1;P1;durP2;ratioP2;P2;SDS_P1;SDS_P2;PMS_P1;PMS_P2;Temp;Humidity;BMP_temperature;BMP_pressure;BME280_temperature;BME280_humidity;BME280_pressure;Samples;Min_cycle;Max_cycle;Signal;HPM_P1;HPM_P2
2023/05/09 00:00:17;;;;;;;8.73;7.63;;;15.80;91.30;;;;;;4938119;29;20203;-79
2023/05/09 00:02:56;;;;;;;7.40;6.60;;;15.80;91.20;;;;;;4938569;29;20220;-79
2023/05/09 00:05:22;;;;;;;9.10;7.33;;;15.90;91.60;;;;;;4937105;29;20646;-79
2023/05/09 00:07:48;;;;;;;8.53;6.97;;;15.90;90.10;;;;;;4941293;28;20171;-85
2023/05/09 00:10:14;;;;;;;8.47;7.50;;;15.90;89.00;;;;;;4961435;28;20177;-82
2023/05/09 00:12:42;;;;;;;7.80;6.80;;;15.90;86.50;;;;;;4946335;29;20546;-78
2023/05/09 00:15:08;;;;;;;8.50;6.93;;;15.90;83.20;;;;;;4941473;29;20223;-79
2023/05/09 00:17:38;;;;;;;8.77;6.83;;;15.90;82.00;;;;;;4937260;29;20174;-77
2023/05/09 00:20:10;;;;;;;8.00;7.20;;;15.90;82.70;;;;;;4937297;29;20196;-78
2023/05/09 00:22:36;;;;;;;9.80;7.60;;;15.80;81.90;;;;;;4937617;29;20252;-79
2023/05/09 00:25:02;;;;;;;8.47;7.03;;;15.80;82.00;;;;;;4936846;29;20235;-80
2023/05/09 00:27:29;;;;;;;8.77;6.37;;;15.80;84.90;;;;;;4951648;29;20730;-80
2023/05/09 00:29:55;;;;;;;9.40;6.73;;;15.80;82.30;;;;;;4961401;28;20174;-85
2023/05/09 00:32:23;;;;;;;9.33;6.97;;;15.80;82.60;;;;;;4960345;28;20183;-82
2023/05/09 00:34:51;;;;;;;7.83;6.77;;;15.80;82.50;;;;;;4950653;28;20175;-79
2023/05/09 00:37:18;;;;;;;8.83;6.80;;;15.80;82.00;;;;;;4944869;29;20177;-80
2023/05/09 00:39:47;;;;;;;7.83;6.90;;;15.90;80.70;;;;;;4953004;29;20215;-78
2023/05/09 00:42:13;;;;;;;8.33;6.80;;;15.90;78.60;;;;;;4937333;29;20274;-77
2023/05/09 00:44:39;;;;;;;9.43;7.20;;;15.90;80.00;;;;;;4936990;29;20629;-80
2023/05/09 00:47:06;;;;;;;9.83;7.20;;;15.90;80.00;;;;;;4937030;29;20169;-81
2023/05/09 00:49:32;;;;;;;9.03;6.33;;;15.90;77.00;;;;;;4937185;29;20175;-81
2023/05/09 00:51:58;;;;;;;9.00;7.20;;;15.90;75.50;;;;;;4936466;29;20194;-79
2023/05/09 00:54:24;;;;;;;10.30;6.87;;;16.00;74.20;;;;;;4951576;29;20179;-82
2023/05/09 00:56:50;;;;;;;9.60;7.30;;;16.00;73.40;;;;;;4936772;29;20182;-83
2023/05/09 00:59:17;;;;;;;8.63;7.07;;;16.10;69.80;;;;;;4936054;29;20684;-78
2023/05/09 01:01:43;;;;;;;8.87;6.87;;;16.20;65.70;;;;;;4936188;29;20235;-80
2023/05/09 01:04:09;;;;;;;9.70;6.50;;;16.20;62.70;;;;;;4936681;29;20586;-78
2023/05/09 01:06:58;;;;;;;10.37;6.73;;;16.30;59.70;;;;;;4951314;29;20179;-78
2023/05/09 01:09:47;;;;;;;8.73;7.47;;;16.20;56.50;;;;;;4933833;29;20307;-78
2023/05/09 01:12:27;;;;;;;8.53;7.17;;;16.10;57.50;;;;;;4935640;29;20185;-79
2023/05/09 01:15:23;;;;;;;9.53;6.93;;;16.00;58.80;;;;;;4935400;29;20165;-78
2023/05/09 01:17:59;;;;;;;9.17;6.90;;;16.00;64.10;;;;;;4951082;29;20587;-81
2023/05/09 01:20:50;;;;;;;9.30;7.60;;;16.00;63.50;;;;;;4936118;29;20182;-81
2023/05/09 01:23:43;;;;;;;9.13;7.27;;;15.90;64.10;;;;;;4936060;29;20176;-79
2023/05/09 01:26:30;;;;;;;10.10;6.73;;;15.90;65.20;;;;;;4951687;29;20180;-78
2023/05/09 01:29:15;;;;;;;8.13;7.00;;;15.90;65.40;;;;;;4950551;29;20176;-80
2023/05/09 01:31:45;;;;;;;8.57;6.47;;;15.80;70.20;;;;;;4936446;29;20169;-80
2023/05/09 01:34:13;;;;;;;9.77;7.37;;;15.80;71.70;;;;;;4936465;29;20177;-78
2023/05/09 01:36:41;;;;;;;9.13;7.30;;;15.80;70.20;;;;;;4936482;29;20170;-78
2023/05/09 01:39:11;;;;;;;8.80;7.20;;;15.80;70.30;;;;;;4935384;29;20218;-78
2023/05/09 01:41:39;;;;;;;11.50;7.40;;;15.90;71.80;;;;;;4936494;29;20164;-78
2023/05/09 01:44:14;;;;;;;10.67;7.33;;;15.90;68.10;;;;;;4936058;29;20188;-77
2023/05/09 01:46:42;;;;;;;9.50;7.03;;;15.90;65.60;;;;;;4950771;29;20183;-79
2023/05/09 01:49:10;;;;;;;10.47;6.73;;;15.90;64.50;;;;;;4937248;29;20175;-81
2023/05/09 01:51:38;;;;;;;9.20;7.27;;;15.80;64.60;;;;;;4936837;29;20660;-79
2023/05/09 01:54:05;;;;;;;10.03;7.30;;;15.80;66.50;;;;;;4936380;29;20268;-80
2023/05/09 01:56:31;;;;;;;9.93;6.67;;;15.80;69.00;;;;;;4936242;29;20662;-78
2023/05/09 01:58:58;;;;;;;10.13;7.33;;;15.90;67.10;;;;;;4942832;29;20219;-79
2023/05/09 02:01:26;;;;;;;9.77;7.13;;;15.90;62.70;;;;;;4945568;29;20173;-77
2023/05/09 02:03:53;;;;;;;8.57;7.10;;;15.80;62.90;;;;;;4945758;29;20176;-78
2023/05/09 02:06:22;;;;;;;10.13;6.93;;;15.80;65.70;;;;;;4944039;29;20700;-76
2023/05/09 02:08:48;;;;;;;8.37;6.37;;;15.80;65.60;;;;;;4943927;29;20183;-79
2023/05/09 02:11:14;;;;;;;10.57;7.00;;;15.80;65.80;;;;;;4943564;29;20654;-77
2023/05/09 02:13:41;;;;;;;9.17;6.93;;;15.90;64.00;;;;;;4942704;29;20267;-78
2023/05/09 02:16:08;;;;;;;8.73;6.50;;;15.90;63.10;;;;;;4940895;29;20203;-78
2023/05/09 02:18:37;;;;;;;11.23;7.00;;;15.90;63.50;;;;;;4940836;29;20225;-80
2023/05/09 02:21:06;;;;;;;9.17;5.97;;;15.80;63.20;;;;;;4939849;29;20208;-79
2023/05/09 02:23:33;;;;;;;9.60;6.60;;;15.90;63.10;;;;;;4939370;29;20663;-80
2023/05/09 02:26:21;;;;;;;8.87;6.53;;;15.90;60.70;;;;;;4938958;29;20159;-80
2023/05/09 02:29:10;;;;;;;10.20;6.47;;;16.00;58.40;;;;;;4941093;29;20177;-79
2023/05/09 02:31:41;;;;;;;8.27;6.80;;;16.00;56.50;;;;;;4955839;29;20177;-82
2023/05/09 02:34:16;;;;;;;8.50;6.53;;;15.90;56.60;;;;;;4957581;29;20266;-80
2023/05/09 02:36:51;;;;;;;11.53;7.40;;;16.10;54.40;;;;;;4960044;29;20172;-78
2023/05/09 02:39:31;;;;;;;8.47;6.87;;;16.10;50.40;;;;;;4960439;28;20190;-79
2023/05/09 02:42:05;;;;;;;8.87;6.70;;;16.00;49.00;;;;;;4962809;28;20173;-76
2023/05/09 02:44:38;;;;;;;9.77;6.83;;;16.00;52.60;;;;;;4951123;29;20169;-79
2023/05/09 02:47:51;;;;;;;9.77;6.70;;;15.90;52.50;;;;;;4946889;29;20179;-80
2023/05/09 02:50:17;;;;;;;9.87;6.40;;;15.90;53.40;;;;;;4938388;29;20170;-80
2023/05/09 02:52:44;;;;;;;7.97;6.67;;;15.90;55.40;;;;;;4938566;29;20996;-77
2023/05/09 02:55:10;;;;;;;9.43;6.87;;;15.90;57.10;;;;;;4939843;29;20949;-78
2023/05/09 02:57:36;;;;;;;9.03;7.00;;;15.80;58.20;;;;;;4939307;29;20173;-80
2023/05/09 03:00:07;;;;;;;9.60;6.67;;;15.80;59.20;;;;;;4938533;29;20180;-81
2023/05/09 03:02:33;;;;;;;9.97;6.63;;;15.80;59.80;;;;;;4954178;29;20221;-81
2023/05/09 03:04:59;;;;;;;8.73;7.27;;;15.80;61.00;;;;;;4939265;29;20178;-80
2023/05/09 03:07:25;;;;;;;9.17;6.43;;;15.90;58.60;;;;;;4940001;29;20179;-81
2023/05/09 03:09:51;;;;;;;10.40;6.73;;;15.90;58.90;;;;;;4938881;29;20179;-79
2023/05/09 03:12:17;;;;;;;9.50;6.77;;;15.90;58.40;;;;;;4939302;29;20185;-84
2023/05/09 03:14:42;;;;;;;8.67;6.80;;;15.80;60.30;;;;;;4954320;28;20161;-76
2023/05/09 03:17:08;;;;;;;10.20;7.57;;;15.80;63.20;;;;;;4974216;28;20189;-77
2023/05/09 03:19:34;;;;;;;8.80;7.43;;;15.80;63.40;;;;;;4943311;29;20214;-79
2023/05/09 03:22:02;;;;;;;10.00;6.97;;;15.80;65.30;;;;;;4955666;29;20189;-81
2023/05/09 03:24:31;;;;;;;8.67;7.33;;;15.80;66.70;;;;;;4939061;29;20215;-79
2023/05/09 03:26:57;;;;;;;9.83;7.40;;;15.70;68.10;;;;;;4953934;29;20256;-79
2023/05/09 03:29:23;;;;;;;10.57;8.43;;;15.80;68.40;;;;;;4939437;29;20175;-79
2023/05/09 03:31:48;;;;;;;10.47;7.47;;;15.80;67.60;;;;;;4940578;29;20177;-82
2023/05/09 03:34:14;;;;;;;11.53;7.63;;;15.80;67.80;;;;;;4955980;29;20177;-79
2023/05/09 03:36:43;;;;;;;9.20;7.77;;;15.80;67.60;;;;;;4956530;28;20154;-80
2023/05/09 03:39:11;;;;;;;11.33;8.00;;;15.80;71.80;;;;;;4972216;28;20629;-80
2023/05/09 03:41:36;;;;;;;9.20;7.37;;;15.80;75.10;;;;;;4940694;29;20161;-78
2023/05/09 03:44:05;;;;;;;10.53;8.30;;;15.80;79.80;;;;;;4939375;29;20203;-78
2023/05/09 03:46:32;;;;;;;10.03;7.60;;;15.80;82.30;;;;;;4938280;29;20244;-79
2023/05/09 03:49:18;;;;;;;11.87;7.93;;;15.80;81.00;;;;;;4937670;29;20177;-79
2023/05/09 03:51:43;;;;;;;9.90;7.83;;;15.80;81.90;;;;;;4947409;29;20187;-78
2023/05/09 03:54:09;;;;;;;10.20;8.40;;;15.80;84.30;;;;;;4936582;29;20657;-79
2023/05/09 03:56:35;;;;;;;11.10;8.23;;;15.70;87.60;;;;;;4937080;29;20171;-78
2023/05/09 03:59:00;;;;;;;10.73;8.70;;;15.70;88.40;;;;;;4936185;29;20216;-80
2023/05/09 04:01:26;;;;;;;11.73;8.87;;;15.70;90.20;;;;;;4936915;29;20176;-79
2023/05/09 04:03:52;;;;;;;11.10;8.60;;;15.60;91.20;;;;;;4936387;29;20184;-80
2023/05/09 04:06:20;;;;;;;9.70;8.03;;;15.60;92.10;;;;;;4937388;29;20201;-78
2023/05/09 04:08:45;;;;;;;11.33;8.57;;;15.60;93.00;;;;;;4937213;29;20173;-80
2023/05/09 04:11:11;;;;;;;10.00;8.33;;;15.70;92.60;;;;;;4937125;29;20620;-80
2023/05/09 04:13:36;;;;;;;9.80;7.90;;;15.70;92.70;;;;;;4937420;29;20206;-80
2023/05/09 04:16:02;;;;;;;10.63;8.43;;;15.70;92.80;;;;;;4937101;29;20665;-78
2023/05/09 04:18:29;;;;;;;9.20;8.20;;;15.70;92.60;;;;;;4936653;29;20284;-79
2023/05/09 04:20:55;;;;;;;11.07;8.77;;;15.70;92.70;;;;;;4936472;29;20234;-79
2023/05/09 04:23:21;;;;;;;10.33;7.80;;;15.80;92.90;;;;;;4936045;29;20197;-78
2023/05/09 04:25:46;;;;;;;10.60;9.17;;;15.80;91.70;;;;;;4936649;29;20241;-77
2023/05/09 04:28:12;;;;;;;9.97;8.40;;;15.90;91.20;;;;;;4935541;29;20245;-79
2023/05/09 04:30:38;;;;;;;12.60;8.70;;;15.90;90.60;;;;;;4936462;29;20685;-77
2023/05/09 04:33:03;;;;;;;8.97;7.97;;;15.90;90.60;;;;;;4936136;29;20184;-79
2023/05/09 04:35:29;;;;;;;10.10;8.17;;;16.00;90.20;;;;;;4936310;29;20173;-83
2023/05/09 04:37:55;;;;;;;11.10;8.20;;;15.90;89.30;;;;;;4936209;29;20173;-80
2023/05/09 04:40:20;;;;;;;9.13;7.37;;;15.90;89.30;;;;;;4935074;29;20169;-79
2023/05/09 04:42:46;;;;;;;9.97;8.13;;;15.90;90.00;;;;;;4935835;29;20172;-78
2023/05/09 04:45:12;;;;;;;9.43;8.10;;;16.00;89.50;;;;;;4935798;29;20227;-78
2023/05/09 04:47:37;;;;;;;8.50;7.60;;;16.00;87.70;;;;;;4936191;29;20182;-79
2023/05/09 04:50:04;;;;;;;9.47;7.67;;;16.00;88.10;;;;;;4937462;29;20197;-79
2023/05/09 04:52:31;;;;;;;9.87;7.80;;;15.90;89.90;;;;;;4937107;29;20645;-79
2023/05/09 04:54:56;;;;;;;8.70;7.80;;;15.90;90.30;;;;;;4938549;29;20264;-79
2023/05/09 04:57:22;;;;;;;10.13;8.10;;;15.90;90.90;;;;;;4936550;29;20701;-79
2023/05/09 04:59:49;;;;;;;11.00;7.90;;;15.90;91.70;;;;;;4936375;29;20669;-80
2023/05/09 05:02:14;;;;;;;9.80;7.70;;;15.90;92.20;;;;;;4936555;29;20168;-82
2023/05/09 05:04:40;;;;;;;8.57;7.67;;;15.90;92.50;;;;;;4936258;29;20177;-79
2023/05/09 05:07:06;;;;;;;10.30;9.17;;;15.90;94.00;;;;;;4936354;29;20158;-79
2023/05/09 05:09:32;;;;;;;10.33;8.43;;;15.80;95.60;;;;;;4936416;29;20184;-78
2023/05/09 05:11:57;;;;;;;10.97;9.37;;;15.70;97.90;;;;;;4937749;29;20203;-79
2023/05/09 05:14:24;;;;;;;10.00;8.80;;;15.70;99.90;;;;;;4938165;29;20260;-78
2023/05/09 05:16:50;;;;;;;12.60;8.80;;;15.70;99.90;;;;;;4938908;29;20165;-82
2023/05/09 05:19:17;;;;;;;12.43;8.73;;;15.70;99.90;;;;;;4937520;29;20705;-79
2023/05/09 05:21:42;;;;;;;11.10;9.27;;;15.60;99.90;;;;;;4935650;29;20268;-81
2023/05/09 05:24:09;;;;;;;13.90;8.93;;;15.60;99.90;;;;;;4938913;29;20263;-81
2023/05/09 05:26:35;;;;;;;12.30;10.03;;;15.60;99.90;;;;;;4940242;29;20178;-78
2023/05/09 05:29:00;;;;;;;12.80;8.30;;;15.60;99.90;;;;;;4939400;29;20178;-79
2023/05/09 05:31:26;;;;;;;10.03;9.00;;;15.60;99.90;;;;;;4932778;29;20188;-79
2023/05/09 05:33:52;;;;;;;9.87;8.80;;;15.60;99.90;;;;;;4917930;29;20178;-79
2023/05/09 05:36:17;;;;;;;9.17;7.83;;;15.60;99.90;;;;;;4916244;29;20181;-85
2023/05/09 05:38:43;;;;;;;9.47;8.20;;;15.70;99.90;;;;;;4918971;29;20204;-79
2023/05/09 05:41:10;;;;;;;10.23;8.43;;;15.60;99.90;;;;;;4918688;29;20172;-84
2023/05/09 05:43:36;;;;;;;10.73;8.50;;;15.60;99.90;;;;;;4917125;29;20188;-81
2023/05/09 05:46:03;;;;;;;9.03;8.03;;;15.60;99.90;;;;;;4917837;29;20253;-81
2023/05/09 05:48:29;;;;;;;8.60;7.60;;;15.70;99.90;;;;;;4918561;29;20177;-81
2023/05/09 05:50:55;;;;;;;9.40;8.03;;;15.60;99.90;;;;;;4931375;29;20523;-80
2023/05/09 05:53:21;;;;;;;10.57;8.83;;;15.50;99.90;;;;;;4944627;29;20181;-81
2023/05/09 05:55:48;;;;;;;12.07;9.00;;;15.50;99.90;;;;;;4946633;29;20174;-82
2023/05/09 05:58:13;;;;;;;10.20;8.10;;;15.50;99.90;;;;;;4958415;28;20209;-82
2023/05/09 06:00:39;;;;;;;9.13;8.20;;;15.50;99.90;;;;;;4957748;28;20161;-80
2023/05/09 06:03:05;;;;;;;10.93;8.60;;;15.60;99.90;;;;;;4958816;28;20236;-83
2023/05/09 06:05:33;;;;;;;9.37;7.40;;;15.60;99.90;;;;;;4956153;29;20189;-82
2023/05/09 06:07:58;;;;;;;8.13;7.33;;;15.60;99.90;;;;;;4950855;29;20316;-82
2023/05/09 06:10:24;;;;;;;8.43;7.63;;;15.70;99.90;;;;;;4950386;29;20649;-92
2023/05/09 06:12:54;;;;;;;11.53;7.97;;;15.70;99.90;;;;;;4944923;29;20177;-83
2023/05/09 06:15:20;;;;;;;11.30;7.70;;;15.70;99.90;;;;;;4947043;29;20261;-87
2023/05/09 06:17:47;;;;;;;12.77;8.03;;;15.70;99.90;;;;;;4945035;29;20188;-89
2023/05/09 06:20:14;;;;;;;8.80;7.90;;;15.80;99.90;;;;;;4940800;29;20197;-82
2023/05/09 06:22:45;;;;;;;8.90;7.90;;;15.80;99.90;;;;;;4948806;29;20697;-81
2023/05/09 06:25:12;;;;;;;9.10;7.73;;;15.90;99.90;;;;;;4957683;29;20220;-89
2023/05/09 06:27:39;;;;;;;8.43;7.43;;;15.90;99.90;;;;;;4928115;29;20233;-92
2023/05/09 06:30:28;;;;;;;8.77;7.90;;;15.90;99.90;;;;;;4944236;29;20170;-88
2023/05/09 06:32:59;;;;;;;7.83;6.93;;;15.90;99.90;;;;;;4932630;29;20192;-81
2023/05/09 06:35:47;;;;;;;8.17;7.33;;;16.00;99.90;;;;;;4942029;29;20204;-87
2023/05/09 06:38:23;;;;;;;7.60;6.90;;;16.00;99.90;;;;;;4941020;29;20202;-80
2023/05/09 06:40:48;;;;;;;12.10;10.80;;;16.00;99.90;;;;;;4940201;29;20185;-88
2023/05/09 06:43:14;;;;;;;7.87;6.97;;;16.00;99.90;;;;;;4942505;28;20177;-81
2023/05/09 06:45:41;;;;;;;7.93;7.03;;;15.90;99.90;;;;;;4943011;28;20165;-80
2023/05/09 06:48:11;;;;;;;9.23;6.93;;;16.00;99.90;;;;;;4939697;29;20157;-80
2023/05/09 06:50:43;;;;;;;8.37;6.83;;;16.00;99.90;;;;;;4940535;29;20639;-80
2023/05/09 06:53:14;;;;;;;8.43;7.43;;;16.00;99.90;;;;;;4941531;29;20209;-81
2023/05/09 06:55:43;;;;;;;7.93;7.13;;;15.90;99.90;;;;;;4937412;29;20208;-95
2023/05/09 06:58:11;;;;;;;9.57;7.70;;;16.00;99.90;;;;;;4935627;29;20249;-87
2023/05/09 07:00:39;;;;;;;29.27;8.37;;;16.10;99.90;;;;;;4936040;29;20175;-82
2023/05/09 07:03:09;;;;;;;10.90;6.83;;;16.00;99.90;;;;;;4935264;29;20710;-95
2023/05/09 07:05:42;;;;;;;7.83;6.60;;;16.10;99.90;;;;;;4934119;29;20178;-92
2023/05/09 07:08:09;;;;;;;10.43;7.20;;;16.10;99.90;;;;;;4934238;29;20166;-91
2023/05/09 07:10:37;;;;;;;7.33;6.33;;;16.10;99.90;;;;;;4938745;28;20175;-82
2023/05/09 07:13:06;;;;;;;7.47;6.63;;;16.10;99.90;;;;;;4941125;28;20177;-86
2023/05/09 07:15:31;;;;;;;9.37;6.77;;;16.00;99.90;;;;;;4942106;28;20158;-86
2023/05/09 07:18:01;;;;;;;8.20;6.53;;;16.10;99.90;;;;;;4941183;28;20185;-84
2023/05/09 07:20:28;;;;;;;7.23;6.53;;;16.10;99.90;;;;;;4941539;28;20201;-83
2023/05/09 07:22:53;;;;;;;9.33;6.93;;;16.10;99.90;;;;;;4941937;28;20166;-88
2023/05/09 07:25:26;;;;;;;9.27;6.97;;;16.10;99.90;;;;;;4942654;28;20209;-80
2023/05/09 07:27:52;;;;;;;13.23;7.50;;;16.10;99.90;;;;;;4941687;28;20162;-80
2023/05/09 07:30:19;;;;;;;7.87;6.83;;;16.10;99.90;;;;;;4942041;28;20229;-86
2023/05/09 07:32:46;;;;;;;8.33;6.83;;;16.10;99.90;;;;;;4941583;28;20194;-79
2023/05/09 07:35:12;;;;;;;8.10;6.40;;;16.10;99.90;;;;;;4942552;28;20177;-81
2023/05/09 07:37:39;;;;;;;9.37;6.60;;;16.10;99.90;;;;;;4939031;28;20200;-82
2023/05/09 07:40:07;;;;;;;9.80;6.77;;;16.10;99.90;;;;;;4941392;28;20231;-92
2023/05/09 07:42:39;;;;;;;8.13;6.57;;;16.10;99.90;;;;;;4937553;29;20239;-96
2023/05/09 07:45:16;;;;;;;9.03;6.93;;;16.20;99.90;;;;;;4938057;29;20181;-83
2023/05/09 07:47:41;;;;;;;8.77;6.43;;;16.10;99.90;;;;;;4928845;29;20626;-80
2023/05/09 07:50:15;;;;;;;8.33;7.13;;;16.10;99.90;;;;;;4924515;29;20178;-81
2023/05/09 07:52:41;;;;;;;16.53;14.90;;;16.10;99.90;;;;;;4927244;29;20179;-84
2023/05/09 07:55:08;;;;;;;8.33;6.57;;;16.10;99.90;;;;;;4929921;29;20255;-80
2023/05/09 07:57:57;;;;;;;8.07;6.50;;;16.10;99.90;;;;;;4929855;29;20210;-80
2023/05/09 08:00:28;;;;;;;9.47;6.17;;;16.20;99.90;;;;;;4935468;29;20225;-79
2023/05/09 08:02:54;;;;;;;7.53;6.57;;;16.10;99.90;;;;;;4935192;29;20154;-88
2023/05/09 08:05:27;;;;;;;9.17;6.33;;;16.20;99.90;;;;;;4935656;29;20177;-92
2023/05/09 08:08:01;;;;;;;7.77;6.70;;;16.20;99.90;;;;;;4936276;29;20170;-84
2023/05/09 08:10:48;;;;;;;8.57;6.50;;;16.20;99.90;;;;;;4932720;29;20186;-95
2023/05/09 08:13:15;;;;;;;6.57;5.93;;;16.10;99.90;;;;;;4931218;29;20177;-85
2023/05/09 08:15:47;;;;;;;8.30;6.43;;;16.10;99.90;;;;;;4935169;29;20177;-92
2023/05/09 08:18:14;;;;;;;8.90;6.53;;;16.10;99.90;;;;;;4937382;29;20206;-81
2023/05/09 08:20:45;;;;;;;7.50;6.70;;;16.10;99.90;;;;;;4939075;29;20200;-85
2023/05/09 08:23:37;;;;;;;8.60;6.30;;;16.10;99.90;;;;;;4938440;29;20192;-94
2023/05/09 08:26:07;;;;;;;7.97;6.63;;;16.10;99.90;;;;;;4934209;29;20233;-92
2023/05/09 08:28:33;;;;;;;8.40;6.87;;;16.10;99.90;;;;;;4936757;29;20189;-95
2023/05/09 08:31:15;;;;;;;9.07;6.17;;;16.10;99.90;;;;;;4936959;29;20198;-86
2023/05/09 08:33:47;;;;;;;9.20;6.50;;;16.20;99.90;;;;;;4939791;28;20171;-88
2023/05/09 08:37:10;;;;;;;8.27;6.57;;;16.30;99.90;;;;;;4938991;29;20170;-88
2023/05/09 08:39:40;;;;;;;7.07;6.07;;;16.30;99.90;;;;;;4935367;29;20209;-82
2023/05/09 08:43:00;;;;;;;6.97;6.07;;;16.10;99.90;;;;;;4938939;29;20185;-89
2023/05/09 08:45:29;;;;;;;9.73;6.57;;;16.10;99.90;;;;;;4939002;29;20181;-93
2023/05/09 08:47:57;;;;;;;8.67;7.20;;;16.20;99.90;;;;;;4938561;29;20186;-85
2023/05/09 08:50:43;;;;;;;13.83;6.77;;;16.10;99.90;;;;;;4941886;28;20199;-83
2023/05/09 08:53:17;;;;;;;8.83;6.30;;;16.20;99.90;;;;;;4941612;29;20161;-78
2023/05/09 08:56:10;;;;;;;9.70;6.03;;;16.30;99.90;;;;;;4941079;28;20177;-81
2023/05/09 08:59:05;;;;;;;6.83;5.83;;;16.30;99.90;;;;;;4940286;28;20195;-81
2023/05/09 09:02:14;;;;;;;7.13;5.70;;;16.20;99.90;;;;;;4939963;29;20184;-92
2023/05/09 09:04:43;;;;;;;10.53;6.30;;;16.20;99.90;;;;;;4941431;28;20204;-80
2023/05/09 09:07:33;;;;;;;7.57;5.27;;;16.20;99.90;;;;;;4941412;28;20177;-83
2023/05/09 09:10:29;;;;;;;8.23;5.50;;;16.10;99.90;;;;;;4938740;29;20186;-92
2023/05/09 09:13:20;;;;;;;8.27;5.50;;;16.20;99.90;;;;;;4939448;29;20198;-94
2023/05/09 09:15:48;;;;;;;8.77;5.63;;;16.20;99.90;;;;;;4939897;29;20168;-79
2023/05/09 09:18:45;;;;;;;7.33;5.80;;;16.20;99.90;;;;;;4939696;28;20200;-80
2023/05/09 09:21:37;;;;;;;6.53;5.57;;;16.20;99.90;;;;;;4940180;28;20182;-83
2023/05/09 09:26:30;;;;;;;8.27;5.53;;;16.30;99.90;;;;;;4984452;23;20247;-80
2023/05/09 09:29:40;;;;;;;6.33;5.53;;;16.30;99.90;;;;;;4979725;28;20194;-79
2023/05/09 09:32:09;;;;;;;7.37;5.83;;;16.30;99.90;;;;;;4979684;28;20166;-80
2023/05/09 09:35:05;;;;;;;9.87;6.13;;;16.30;99.90;;;;;;4978976;28;20191;-80
2023/05/09 09:38:03;;;;;;;6.63;5.50;;;16.30;99.90;;;;;;4980673;28;20147;-83
2023/05/09 09:40:54;;;;;;;6.43;5.60;;;16.30;99.90;;;;;;4983192;28;20256;-81
2023/05/09 09:43:32;;;;;;;7.93;5.50;;;16.20;99.90;;;;;;4982805;28;20177;-79
2023/05/09 09:46:08;;;;;;;6.83;5.77;;;16.20;99.90;;;;;;4983393;28;20242;-80
2023/05/09 09:49:04;;;;;;;6.53;5.50;;;16.10;99.90;;;;;;4983601;28;20193;-79
2023/05/09 09:51:43;;;;;;;5.37;4.83;;;15.90;99.90;;;;;;4982154;28;20265;-80
2023/05/09 09:54:14;;;;;;;9.63;5.27;;;15.90;99.90;;;;;;4982817;28;20189;-83
2023/05/09 09:57:17;;;;;;;9.20;4.90;;;15.90;99.90;;;;;;4982690;28;20181;-82
2023/05/09 10:03:59;;;;;;;7.83;5.13;;;15.90;99.90;;;;;;4983376;28;20152;-80
2023/05/09 10:06:50;;;;;;;6.20;4.10;;;15.80;99.90;;;;;;4982506;28;20191;-82
2023/05/09 10:09:48;;;;;;;5.77;4.30;;;15.70;99.90;;;;;;4983150;28;20192;-81
2023/05/09 10:12:57;;;;;;;7.43;4.53;;;15.60;99.90;;;;;;4984397;28;20196;-80
2023/05/09 10:16:03;;;;;;;10.20;4.47;;;15.70;99.90;;;;;;4983037;28;20280;-79
2023/05/09 10:19:03;;;;;;;8.60;5.30;;;15.80;99.90;;;;;;4982616;28;20204;-82
2023/05/09 10:22:01;;;;;;;6.17;5.00;;;15.70;99.90;;;;;;4967571;28;20173;-80
2023/05/09 10:31:40;;;;;;;8.00;4.97;;;15.80;99.90;;;;;;4981990;28;20244;-84
2023/05/09 10:38:05;;;;;;;5.67;4.70;;;15.80;99.90;;;;;;4982470;28;20217;-82
2023/05/09 10:40:59;;;;;;;6.33;5.03;;;15.80;99.90;;;;;;4981199;28;20211;-84
2023/05/09 10:43:39;;;;;;;6.97;5.33;;;15.80;99.90;;;;;;4982323;28;20253;-81
2023/05/09 10:46:30;;;;;;;8.70;5.30;;;15.80;99.90;;;;;;4978864;28;20184;-81
2023/05/09 10:49:26;;;;;;;7.60;5.70;;;15.80;99.90;;;;;;4978295;28;20171;-91
2023/05/09 10:52:15;;;;;;;7.57;5.33;;;15.80;99.90;;;;;;4975984;28;20252;-82
2023/05/09 10:54:42;;;;;;;6.13;4.97;;;15.90;99.90;;;;;;4979799;28;20175;-90
2023/05/09 10:57:39;;;;;;;9.07;5.17;;;15.90;99.90;;;;;;4984145;28;20222;-81
2023/05/09 11:00:22;;;;;;;8.33;5.90;;;15.70;99.90;;;;;;4979339;28;20189;-83
2023/05/09 11:03:06;;;;;;;7.33;6.10;;;15.70;99.90;;;;;;4979535;28;20215;-83
2023/05/09 11:05:59;;;;;;;7.97;6.00;;;15.70;99.90;;;;;;4978848;29;20189;-82
2023/05/09 11:08:48;;;;;;;8.73;5.70;;;15.80;99.90;;;;;;4979848;29;20196;-85
2023/05/09 11:11:30;;;;;;;7.70;6.57;;;15.80;99.90;;;;;;4977830;28;20170;-88
2023/05/09 11:14:45;;;;;;;7.40;6.37;;;15.70;99.90;;;;;;4978556;28;20162;-84
2023/05/09 11:17:31;;;;;;;7.60;5.83;;;15.80;99.90;;;;;;4977478;28;20170;-85
2023/05/09 11:20:10;;;;;;;6.47;5.37;;;15.70;99.90;;;;;;4978355;29;20226;-80
2023/05/09 11:22:46;;;;;;;8.20;6.50;;;15.60;99.90;;;;;;4960066;29;20172;-92
2023/05/09 11:25:42;;;;;;;7.90;5.97;;;15.60;99.90;;;;;;4974828;29;20172;-90
2023/05/09 11:28:37;;;;;;;8.77;6.07;;;15.50;99.90;;;;;;4976677;28;20172;-80
2023/05/09 11:31:35;;;;;;;8.53;6.50;;;15.40;99.90;;;;;;4978328;28;20157;-83
2023/05/09 11:34:30;;;;;;;7.73;6.57;;;15.40;99.90;;;;;;4979081;28;20145;-91
2023/05/09 11:37:12;;;;;;;7.53;6.10;;;15.50;99.90;;;;;;4976421;29;20180;-82
2023/05/09 11:40:03;;;;;;;8.40;6.90;;;15.50;99.90;;;;;;4978676;28;20218;-80
2023/05/09 11:42:54;;;;;;;8.93;6.80;;;15.50;99.90;;;;;;4980278;28;20184;-80
2023/05/09 11:45:54;;;;;;;8.87;7.60;;;15.50;99.90;;;;;;4980035;28;20191;-80
2023/05/09 11:48:43;;;;;;;6.63;5.20;;;15.60;99.90;;;;;;4980650;28;20187;-83
2023/05/09 11:51:19;;;;;;;5.47;4.87;;;15.60;99.90;;;;;;4978845;28;20158;-80
2023/05/09 11:54:17;;;;;;;6.17;4.77;;;15.60;99.90;;;;;;4979543;28;20178;-80
2023/05/09 11:56:43;;;;;;;6.03;4.43;;;15.60;99.90;;;;;;4979868;28;20189;-82
2023/05/09 11:59:14;;;;;;;8.00;4.97;;;15.50;99.90;;;;;;4978963;28;20211;-85
2023/05/09 12:02:10;;;;;;;7.03;5.87;;;15.60;99.90;;;;;;4979842;28;20148;-80
2023/05/09 12:04:37;;;;;;;6.63;5.90;;;15.50;99.90;;;;;;4979992;28;20173;-88
2023/05/09 12:07:25;;;;;;;8.50;6.20;;;15.40;99.90;;;;;;4978631;28;20191;-80
2023/05/09 12:10:22;;;;;;;6.90;5.07;;;15.40;99.90;;;;;;4978862;28;20165;-85
2023/05/09 12:12:55;;;;;;;6.83;5.30;;;15.30;99.90;;;;;;4977696;29;20196;-79
2023/05/09 12:15:40;;;;;;;6.27;5.00;;;15.30;99.90;;;;;;4979300;28;20164;-84
2023/05/09 12:18:38;;;;;;;5.60;4.00;;;15.30;99.90;;;;;;4977573;29;20196;-81
2023/05/09 12:21:45;;;;;;;6.53;4.27;;;15.30;99.90;;;;;;4977664;28;20199;-87
2023/05/09 12:25:01;;;;;;;6.77;4.83;;;15.40;99.90;;;;;;4976266;28;20272;-95
2023/05/09 12:27:28;;;;;;;6.87;3.83;;;15.40;99.90;;;;;;4978270;28;20244;-90
2023/05/09 12:30:21;;;;;;;7.53;4.00;;;15.40;99.90;;;;;;4979489;28;20180;-87
2023/05/09 12:32:49;;;;;;;7.87;4.40;;;15.50;99.90;;;;;;4977745;28;20196;-79
2023/05/09 12:35:28;;;;;;;8.30;3.73;;;15.50;99.90;;;;;;4978683;28;20255;-80
2023/05/09 12:37:58;;;;;;;4.03;2.90;;;15.60;99.90;;;;;;4980379;28;20284;-79
2023/05/09 12:40:26;;;;;;;4.73;2.87;;;15.40;99.90;;;;;;4979701;28;20184;-82
2023/05/09 12:43:08;;;;;;;5.03;2.57;;;15.20;99.90;;;;;;4979700;28;20219;-86
2023/05/09 12:45:48;;;;;;;5.13;2.80;;;15.10;99.90;;;;;;4978479;28;20169;-86
2023/05/09 12:48:33;;;;;;;3.03;2.40;;;14.90;99.90;;;;;;4975981;28;20181;-92
2023/05/09 12:51:24;;;;;;;4.00;2.43;;;15.00;99.90;;;;;;4978958;28;20308;-83
2023/05/09 12:54:09;;;;;;;4.80;2.60;;;14.90;99.90;;;;;;4979770;28;20169;-81
2023/05/09 12:56:51;;;;;;;5.67;3.53;;;14.90;99.90;;;;;;4963851;28;20180;-82
2023/05/09 12:59:48;;;;;;;5.70;3.27;;;14.90;99.90;;;;;;4978130;28;20196;-84
2023/05/09 13:02:49;;;;;;;5.83;4.00;;;14.90;99.90;;;;;;4978292;28;20199;-96
2023/05/09 13:08:42;;;;;;;5.57;3.97;;;15.00;99.90;;;;;;4979392;28;20216;-86
2023/05/09 13:11:11;;;;;;;6.20;3.90;;;15.00;99.90;;;;;;4979582;28;20188;-88
2023/05/09 13:13:52;;;;;;;4.70;3.40;;;15.00;99.90;;;;;;4978912;28;20176;-86
2023/05/09 13:16:21;;;;;;;6.47;4.70;;;15.10;99.90;;;;;;4979508;28;20152;-79
2023/05/09 13:19:07;;;;;;;5.93;3.63;;;15.10;99.90;;;;;;4979496;28;20269;-86
2023/05/09 13:21:47;;;;;;;7.27;3.40;;;15.10;99.90;;;;;;4978828;28;20192;-83
2023/05/09 13:24:16;;;;;;;4.63;3.20;;;15.00;99.90;;;;;;4979165;28;20171;-83
2023/05/09 13:27:01;;;;;;;5.40;3.97;;;14.90;99.90;;;;;;4979653;28;20195;-84
2023/05/09 13:29:30;;;;;;;5.17;3.50;;;15.00;99.90;;;;;;4979438;28;20196;-82
2023/05/09 13:32:02;;;;;;;6.10;4.00;;;14.90;99.90;;;;;;4978977;28;20178;-96
2023/05/09 13:34:53;;;;;;;4.30;3.50;;;14.90;99.90;;;;;;4979118;28;20232;-88
2023/05/09 13:37:40;;;;;;;6.13;4.00;;;15.00;99.90;;;;;;4976437;28;20160;-83
2023/05/09 13:40:17;;;;;;;6.10;3.83;;;14.90;99.90;;;;;;4971944;28;20340;-87
2023/05/09 13:42:45;;;;;;;5.67;4.40;;;14.90;99.90;;;;;;4975277;28;20160;-80
2023/05/09 13:45:22;;;;;;;7.77;4.60;;;14.90;99.90;;;;;;4977951;28;20236;-81